Hauptseite
METAR-TAF:

METAR-TAF

Flughäfen :

Heeresflugplatz Niederstetten

Niederstetten, Deutschland

Breite: 49-24N, Länge: 009-58E, Höhe: 468 m

Beobachtung

Neuester Wetterbericht von vor 45 Minuten, um 07:20 UTC
Wind 4 kt aus Ost
Temperatur 21°C
Luftfeuchtigkeit 69%
Luftdruck 1023 hPa
Sichtweite 10 km oder mehr
Durchbrochene Bewölkung in der Höhe von 28000 ft

METAR: ETHN 180720Z 08004KT 9999 BKN280 21/15 Q1023 BLU+BLU+

Zeit: 10:05 (08:05 UTC)

Prognose

Neuester Wetterbericht von vor 4 Stunden und 5 Minuten, um 04:00 UTC
Gültige Prognose vom 18 um 05 UTC bis 18 um 14 UTC
Wind 7 kt aus Ost
Sichtweite 10 km oder mehr
Leicht bewölkt in der Höhe von 4000 ft
Aufgelockert bewölkt in der Höhe von 30000 ft

TAF: ETHN 180400Z 1805/1814 09007KT 9999 NSW FEW040 SCT300

Wetterbeobachtungen und Prognosen von mehr als 4000 Flughäfen (METAR und TAF Bericht).

Die verfügbaren Stationen werden durch gelbe und rote Markierungen auf der Karte dargestellt.

Führen Sie die Maus auf sie, um den Namen der Station zu sehen.

Darauf klicken, um die Beobachtung von Wetterbeobachtungen und Prognosen zu sehen.

Um die Karte zu ändern : klicken Sie auf den grünen Tasten mit einem schwarzen Kreuz Zum Vergrößern, auf den grünen Button mit einem Gedankenstrich zu verkleinern, oder auf die grünen Pfeile für benachbarte Karten.


METAR-TAF: